Nearby METAR Reports

KLNK - Lincoln, Nebraska, USA
Distance from station: WNW 8mi, 13km
Updated: Mon, 25-Mar-2019 8:54am CDT
Mist, Overcast
Mist, Overcast
 Wind from N
Wind: N 10 mph , 17 km/h
Temperature: 41°F , 5°C
Wind Chill: 35°F , 2°C
Dew Point: 37°F , 3°C
Humidity: 87%
Barometer: 30.33 inHg , 1027.1 hPa
Summary: Mist
Clouds: Overcast
Visibility: 5 miles , 8 km
Cloud details: Overcast 900 ft
2019/03/25 13:54 KLNK 251354Z 36009KT 5SM BR OVC009 05/03 A3033 RMK AO2 SLP277 T00500033
KAHQ - Wahoo, Nebraska, USA
Distance from station: N 31mi, 49km
Updated: Mon, 25-Mar-2019 9:35am CDT
Clear
Clear
 Wind from N
Wind: N 12 mph , 19 km/h
Temperature: 41°F , 5°C
Wind Chill: 34°F , 1°C
Dew Point: 39°F , 4°C
Humidity: 93%
Barometer: 30.33 inHg , 1027.1 hPa
Clouds: Clear
Visibility: 7 miles , 11 km
2019/03/25 14:35 KAHQ 251435Z AUTO 01010KT 7SM CLR 05/04 A3033 RMK AO2 T00460036
 
KBIE - Beatrice Municip, Nebraska, USA
Distance from station: S 36mi, 57km
Updated: Mon, 25-Mar-2019 9:35am CDT
Mist, Overcast
Mist, Overcast
 Wind from NNE
Wind: NNE 10 mph , 17 km/h
Temperature: 43°F , 6°C
Wind Chill: 37°F , 3°C
Dew Point: 41°F , 5°C
Humidity: 93%
Barometer: 30.31 inHg , 1026.4 hPa
Summary: Mist
Clouds: Overcast
Visibility: 5 miles , 8 km
Cloud details: Overcast 500 ft
2019/03/25 14:35 KBIE 251435Z AUTO 02009KT 5SM BR OVC005 06/05 A3031 RMK AO2 T00600050
KMLE - Omaha/Millard, Nebraska, USA
Distance from station: NE 39mi, 63km
Updated: Mon, 25-Mar-2019 9:35am CDT
Overcast
Overcast
 Wind from N
Wind: N 3 mph , 6 km/h
Temperature: 43°F , 6°C
Dew Point: 37°F , 3°C
Humidity: 81%
Barometer: 30.33 inHg , 1027.1 hPa
Clouds: Overcast
Visibility: 10 miles , 16 km
Cloud details: Partly Cloudy 7500 ft
Overcast 9000 ft
2019/03/25 14:35 KMLE 251435Z AUTO 01003KT 10SM SCT075 OVC090 06/03 A3033 RMK AO2 T00550025
 
KPMV - Plattsmouth Muni, Nebraska, USA
Distance from station: ENE 39mi, 63km
Updated: Mon, 25-Mar-2019 9:35am CDT
Overcast
Overcast
 Wind from N
Wind: N 8 mph , 13 km/h
Temperature: 41°F , 5°C
Wind Chill: 36°F , 2°C
Dew Point: 36°F , 2°C
Humidity: 81%
Barometer: 30.32 inHg , 1026.8 hPa
Clouds: Overcast
Visibility: 10 miles , 16 km
Cloud details: Partly Cloudy 1000 ft
Overcast 8500 ft
2019/03/25 14:35 KPMV 251435Z AUTO 36007KT 10SM SCT010 OVC085 05/02 A3032 RMK AO2 T00450023
KAFK - Nebraska City, Nebraska, USA
Distance from station: ESE 43mi, 69km
Updated: Mon, 25-Mar-2019 9:35am CDT
Overcast
Overcast
 Wind from N
Wind: N 8 mph , 13 km/h
Temperature: 43°F , 6°C
Wind Chill: 38°F , 3°C
Dew Point: 37°F , 3°C
Humidity: 81%
Barometer: 30.31 inHg , 1026.4 hPa
Clouds: Overcast
Visibility: 7 miles , 11 km
Cloud details: Partly Cloudy 800 ft
Overcast 7000 ft
2019/03/25 14:35 KAFK 251435Z AUTO 01007KT 7SM SCT008 OVC070 06/03 A3031 RMK AO2 T00550034
 
KOFF - Offutt Afb/Belle, Nebraska, USA
Distance from station: ENE 44mi, 70km
Updated: Mon, 25-Mar-2019 8:56am CDT
Mostly Cloudy
Mostly Cloudy
 Wind from N
Wind: N 7 mph , 11 km/h
Temperature: 41°F , 5°C
Wind Chill: 36°F , 2°C
Dew Point: 34°F , 1°C
Humidity: 76%
Barometer: 30.32 inHg , 1026.8 hPa
Clouds: Mostly Cloudy
Visibility: 10 miles , 16 km
Cloud details: Mostly Cloudy 9000 ft
2019/03/25 13:56 KOFF 251356Z 35006KT 10SM BKN090 05/01 A3032 RMK AO2A SLPNO ASTG ESTMD $
KFET - Fremont Muni Arp, Nebraska, USA
Distance from station: N 46mi, 74km
Updated: Mon, 25-Mar-2019 9:35am CDT
Overcast
Overcast
 Wind from N
Wind: N 3 mph , 6 km/h
Temperature: 41°F , 5°C
Dew Point: 39°F , 4°C
Humidity: 93%
Barometer: 30.34 inHg , 1027.4 hPa
Clouds: Overcast
Visibility: 10 miles , 16 km
Cloud details: Mostly Cloudy 1000 ft
Mostly Cloudy 2600 ft
Overcast 8000 ft
2019/03/25 14:35 KFET 251435Z AUTO 36003KT 10SM BKN010 BKN026 OVC080 05/04 A3034 RMK AO2 T00520035
 
KBTA - Blair Muni, Nebraska, USA
Distance from station: NNE 51mi, 82km
Updated: Mon, 25-Mar-2019 9:35am CDT
Overcast
Overcast
 Wind from N
Wind: N 9 mph , 15 km/h
Temperature: 39°F , 4°C
Wind Chill: 33°F , 1°C
Dew Point: 36°F , 2°C
Humidity: 87%
Barometer: 30.32 inHg , 1026.8 hPa
Clouds: Overcast
Visibility: 10 miles , 16 km
Cloud details: Overcast 7000 ft
2019/03/25 14:35 KBTA 251435Z AUTO 01008KT 10SM OVC070 04/02 A3032 RMK AO2 T00400020
KJYR - York, Nebraska, USA
Distance from station: W 52mi, 84km
Updated: Mon, 25-Mar-2019 9:35am CDT
Mist, Overcast
Mist, Overcast
 Wind from NE
Wind: NE 6 mph , 9 km/h
Temperature: 39°F , 4°C
Wind Chill: 35°F , 2°C
Dew Point: 39°F , 4°C
Humidity: 100%
Barometer: 30.32 inHg , 1026.8 hPa
Summary: Mist
Clouds: Overcast
Visibility: 1 mile , 2 km
Cloud details: Overcast 300 ft
2019/03/25 14:35 KJYR 251435Z AUTO 04005KT 1SM BR OVC003 04/04 A3032 RMK AO2
 
KOMA - Omaha/Eppley, Nebraska, USA
Distance from station: NE 53mi, 85km
Updated: Mon, 25-Mar-2019 8:59am CDT
Overcast
Overcast
 Wind from N
Wind: N 12 mph , 19 km/h
Temperature: 39°F , 4°C
Wind Chill: 32°F , 0°C
Dew Point: 36°F , 2°C
Humidity: 87%
Barometer: 30.32 inHg , 1026.8 hPa
Clouds: Overcast
Visibility: 10 miles , 16 km
Cloud details: Few Clouds 900 ft
Mostly Cloudy 7000 ft
Overcast 9000 ft
2019/03/25 13:59 KOMA 251359Z 36010KT 10SM FEW009 BKN070 OVC090 04/02 A3032 RMK AO2 T00440017
KOLU - Columbus Muni, Nebraska, USA
Distance from station: NW 58mi, 93km
Updated: Mon, 25-Mar-2019 8:56am CDT
Mist, Overcast
Mist, Overcast
 Wind from N
Wind: N 6 mph , 9 km/h
Temperature: 39°F , 4°C
Wind Chill: 35°F , 2°C
Dew Point: 37°F , 3°C
Humidity: 93%
Barometer: 30.34 inHg , 1027.4 hPa
Summary: Mist
Clouds: Overcast
Visibility: 4 miles , 6 km
Cloud details: Overcast 500 ft
2019/03/25 13:56 KOLU 251356Z AUTO 01005KT 4SM BR OVC005 04/03 A3034 RMK AO2 SLP285 T00390033 PNO $